createdAt,value
2018-09-23T00:01:00.629Z,1.60
2018-09-23T00:03:29.937Z,2.53
2018-09-23T00:05:59.610Z,2.10
2018-09-23T00:08:28.890Z,1.50
2018-09-23T00:10:58.172Z,2.07
2018-09-23T00:13:27.452Z,1.83
2018-09-23T00:15:56.744Z,2.67
2018-09-23T00:18:26.019Z,3.20
2018-09-23T00:20:55.502Z,2.37
2018-09-23T00:23:24.730Z,1.57
2018-09-23T00:25:54.010Z,4.60
2018-09-23T00:28:23.306Z,1.93
2018-09-23T00:30:52.590Z,2.27
2018-09-23T00:33:21.873Z,3.57
2018-09-23T00:35:51.187Z,2.67
2018-09-23T00:38:20.524Z,2.00
2018-09-23T00:40:49.842Z,4.10
2018-09-23T00:43:19.117Z,1.97
2018-09-23T00:45:48.379Z,2.20
2018-09-23T00:48:17.718Z,1.90
2018-09-23T00:50:46.982Z,4.00
2018-09-23T00:53:16.270Z,2.80
2018-09-23T00:55:45.544Z,4.03
2018-09-23T00:58:14.829Z,3.93
2018-09-23T01:00:44.189Z,3.33
2018-09-23T01:03:13.444Z,2.93
2018-09-23T01:05:42.702Z,2.83
2018-09-23T01:08:12.033Z,2.80
2018-09-23T01:10:41.373Z,4.23
2018-09-23T01:13:10.696Z,2.47
2018-09-23T01:15:39.965Z,7.33
2018-09-23T01:18:09.261Z,2.83
2018-09-23T01:20:38.670Z,2.07
2018-09-23T01:23:08.037Z,2.03
2018-09-23T01:25:37.301Z,2.40
2018-09-23T01:28:06.602Z,2.43
2018-09-23T01:30:35.965Z,3.40
2018-09-23T01:33:05.243Z,4.10
2018-09-23T01:35:34.737Z,2.90
2018-09-23T01:38:03.989Z,2.33
2018-09-23T01:40:33.302Z,4.27
2018-09-23T01:43:02.550Z,4.60
2018-09-23T01:45:31.845Z,6.03
2018-09-23T01:48:01.068Z,4.97
2018-09-23T01:50:30.385Z,2.53
2018-09-23T01:52:59.654Z,2.43
2018-09-23T01:55:29.113Z,1.73
2018-09-23T01:57:58.390Z,2.00
2018-09-23T02:00:27.718Z,2.50
2018-09-23T02:02:57.021Z,2.90
2018-09-23T02:05:26.370Z,2.50
2018-09-23T02:07:55.632Z,4.43
2018-09-23T02:10:24.957Z,3.53
2018-09-23T02:12:54.252Z,2.73
2018-09-23T02:15:23.541Z,5.17
2018-09-23T02:17:52.787Z,3.60
2018-09-23T02:20:22.091Z,3.37
2018-09-23T02:22:51.359Z,3.23
2018-09-23T02:25:20.696Z,3.47
2018-09-23T02:27:49.984Z,3.43
2018-09-23T02:30:19.279Z,3.30
2018-09-23T02:32:48.552Z,2.53
2018-09-23T02:35:17.982Z,3.57
2018-09-23T02:37:47.249Z,4.57
2018-09-23T02:40:16.562Z,2.97
2018-09-23T02:42:45.843Z,6.13
2018-09-23T02:45:15.120Z,2.63
2018-09-23T02:47:44.633Z,3.73
2018-09-23T02:50:13.974Z,2.43
2018-09-23T02:52:43.260Z,2.30
2018-09-23T02:55:12.501Z,3.67
2018-09-23T02:57:41.789Z,2.97
2018-09-23T03:00:11.062Z,4.37
2018-09-23T03:02:40.386Z,3.37
2018-09-23T03:05:09.637Z,5.50
2018-09-23T03:07:38.958Z,3.47
2018-09-23T03:10:08.221Z,5.00
2018-09-23T03:12:37.505Z,4.47
2018-09-23T03:15:06.804Z,2.30
2018-09-23T03:17:36.101Z,3.00
2018-09-23T03:20:05.396Z,2.50
2018-09-23T03:22:34.691Z,3.10
2018-09-23T03:25:03.940Z,7.43
2018-09-23T03:27:33.243Z,2.90
2018-09-23T03:30:02.523Z,4.23
2018-09-23T03:32:31.830Z,2.80
2018-09-23T03:35:01.089Z,6.13
2018-09-23T03:37:30.503Z,5.90
2018-09-23T03:39:59.746Z,2.97
2018-09-23T03:42:29.081Z,4.60
2018-09-23T03:44:58.357Z,5.00
2018-09-23T03:47:27.616Z,2.67
2018-09-23T03:49:56.892Z,4.20
2018-09-23T03:52:26.164Z,3.23
2018-09-23T03:54:55.438Z,3.30
2018-09-23T03:57:24.699Z,2.90
2018-09-23T03:59:53.989Z,2.67
2018-09-23T04:02:23.293Z,3.23
2018-09-23T04:04:52.562Z,4.10
2018-09-23T04:07:21.801Z,2.50
2018-09-23T04:09:51.091Z,2.30
2018-09-23T04:12:20.370Z,4.47
2018-09-23T04:14:49.683Z,3.70
2018-09-23T04:17:18.934Z,3.63
2018-09-23T04:19:48.207Z,3.43
2018-09-23T04:22:17.481Z,4.30
2018-09-23T04:24:46.754Z,4.60
2018-09-23T04:27:15.995Z,3.03
2018-09-23T04:29:45.395Z,5.33
2018-09-23T04:32:14.637Z,3.53
2018-09-23T04:34:43.929Z,5.80
2018-09-23T04:37:13.164Z,4.70
2018-09-23T04:39:42.422Z,5.00
2018-09-23T04:42:11.703Z,3.60
2018-09-23T04:44:40.965Z,3.70
2018-09-23T04:47:10.238Z,4.60
2018-09-23T04:49:39.504Z,4.83
2018-09-23T04:52:08.757Z,2.40
2018-09-23T04:54:38.010Z,2.73
2018-09-23T04:57:07.296Z,2.53
2018-09-23T04:59:36.526Z,3.97
2018-09-23T05:02:05.830Z,3.60
2018-09-23T05:04:35.083Z,3.87
2018-09-23T05:07:04.365Z,3.10
2018-09-23T05:09:33.622Z,3.47
2018-09-23T05:12:02.925Z,4.90
2018-09-23T05:14:32.187Z,3.57
2018-09-23T05:17:01.596Z,3.93
2018-09-23T05:19:30.852Z,4.00
2018-09-23T05:22:00.177Z,3.47
2018-09-23T05:24:29.447Z,4.40
2018-09-23T05:26:58.714Z,5.47
2018-09-23T05:29:28.080Z,4.20
2018-09-23T05:31:57.350Z,4.63
2018-09-23T05:34:26.718Z,4.37
2018-09-23T05:36:56.009Z,4.83
2018-09-23T05:39:25.279Z,4.07
2018-09-23T05:41:54.577Z,3.53
2018-09-23T05:44:23.913Z,4.40
2018-09-23T05:46:53.222Z,3.60
2018-09-23T05:49:22.559Z,4.00
2018-09-23T05:51:51.903Z,4.07
2018-09-23T05:54:21.265Z,3.50
2018-09-23T05:56:50.585Z,4.33
2018-09-23T05:59:19.865Z,4.17
2018-09-23T06:01:49.200Z,4.50
2018-09-23T06:04:18.506Z,4.20
2018-09-23T06:06:47.831Z,4.73
2018-09-23T06:09:17.157Z,5.60
2018-09-23T06:11:46.432Z,4.90
2018-09-23T06:14:15.737Z,3.70
2018-09-23T06:16:45.033Z,3.50
2018-09-23T06:19:14.343Z,4.13
2018-09-23T06:21:43.599Z,4.50
2018-09-23T06:24:12.869Z,5.60
2018-09-23T06:26:42.160Z,5.23
2018-09-23T06:29:11.445Z,4.73
2018-09-23T06:31:40.705Z,4.57
2018-09-23T06:34:09.993Z,4.97
2018-09-23T06:36:39.242Z,6.10
2018-09-23T06:39:09.273Z,5.27
2018-09-23T06:41:38.534Z,6.37
2018-09-23T06:44:07.898Z,7.33
2018-09-23T06:46:37.174Z,6.43
2018-09-23T06:49:06.555Z,7.53
2018-09-23T06:51:35.911Z,7.00
2018-09-23T06:54:05.265Z,6.10
2018-09-23T06:56:34.587Z,7.37
2018-09-23T06:59:03.847Z,8.20
2018-09-23T07:01:33.188Z,7.70
2018-09-23T07:04:02.560Z,7.63
2018-09-23T07:06:31.903Z,8.00
2018-09-23T07:09:01.148Z,8.17
2018-09-23T07:11:30.481Z,7.83
2018-09-23T07:13:59.746Z,9.73
2018-09-23T07:16:29.205Z,8.87
2018-09-23T07:18:58.461Z,9.10
2018-09-23T07:21:27.774Z,9.50
2018-09-23T07:23:57.412Z,7.53
2018-09-23T07:26:26.668Z,8.23
2018-09-23T07:28:56.219Z,8.50
2018-09-23T07:31:25.586Z,9.57
2018-09-23T07:33:54.930Z,7.87
2018-09-23T07:36:24.309Z,9.43
2018-09-23T07:38:53.574Z,6.70
2018-09-23T07:41:22.980Z,5.93
2018-09-23T07:43:52.379Z,7.57
2018-09-23T07:46:21.739Z,8.90
2018-09-23T07:48:51.033Z,6.87
2018-09-23T07:51:20.487Z,5.23
2018-09-23T07:53:49.797Z,7.23
2018-09-23T07:56:19.209Z,5.70
2018-09-23T07:58:48.509Z,5.40
2018-09-23T08:01:17.895Z,7.20
2018-09-23T08:03:47.156Z,6.80
2018-09-23T08:06:16.530Z,5.17
2018-09-23T08:08:45.861Z,5.00
2018-09-23T08:11:15.151Z,5.40
2018-09-23T08:13:44.590Z,5.03
2018-09-23T08:16:13.776Z,5.37
2018-09-23T08:18:43.068Z,4.60
2018-09-23T08:21:12.361Z,4.60
2018-09-23T08:23:41.721Z,5.00
2018-09-23T08:26:10.997Z,5.73
2018-09-23T08:28:40.312Z,3.53
2018-09-23T08:31:09.756Z,5.00
2018-09-23T08:33:39.903Z,4.17
2018-09-23T08:36:09.174Z,5.10
2018-09-23T08:38:38.608Z,4.07
2018-09-23T08:41:07.878Z,5.47
2018-09-23T08:43:37.199Z,5.17
2018-09-23T08:46:06.538Z,4.47
2018-09-23T08:48:35.863Z,4.87
2018-09-23T08:51:05.171Z,3.37
2018-09-23T08:53:34.721Z,3.30
2018-09-23T08:56:04.102Z,3.33
2018-09-23T08:58:33.486Z,4.57
2018-09-23T09:01:02.769Z,7.10
2018-09-23T09:03:32.153Z,3.83
2018-09-23T09:06:01.403Z,3.70
2018-09-23T09:08:30.725Z,3.30
2018-09-23T09:10:59.994Z,3.63
2018-09-23T09:13:29.286Z,3.57
2018-09-23T09:15:58.576Z,3.23
2018-09-23T09:18:27.931Z,2.60
2018-09-23T09:20:57.199Z,3.67
2018-09-23T09:23:26.426Z,2.40
2018-09-23T09:25:55.933Z,2.33
2018-09-23T09:28:25.218Z,2.33
2018-09-23T09:30:54.564Z,2.67
2018-09-23T09:33:23.870Z,2.50
2018-09-23T09:35:53.175Z,2.70
2018-09-23T09:38:22.583Z,2.33
2018-09-23T09:40:52.011Z,4.10
2018-09-23T09:43:21.436Z,2.33
2018-09-23T09:45:51.278Z,4.07
2018-09-23T09:48:20.586Z,2.53
2018-09-23T09:50:49.995Z,2.17
2018-09-23T09:53:19.354Z,2.00
2018-09-23T09:55:48.640Z,1.83
2018-09-23T09:58:17.987Z,3.50
2018-09-23T10:00:47.296Z,2.30
2018-09-23T10:03:16.615Z,1.73
2018-09-23T10:05:45.912Z,3.10
2018-09-23T10:08:15.226Z,2.20
2018-09-23T10:10:44.581Z,1.90
2018-09-23T10:13:13.883Z,1.60
2018-09-23T10:15:43.221Z,2.20
2018-09-23T10:18:12.538Z,1.60
2018-09-23T10:20:41.834Z,2.80
2018-09-23T10:23:11.246Z,2.10
2018-09-23T10:25:40.604Z,1.60
2018-09-23T10:28:09.941Z,2.00
2018-09-23T10:30:39.209Z,2.10
2018-09-23T10:33:08.461Z,3.33
2018-09-23T10:35:37.760Z,1.70
2018-09-23T10:38:07.011Z,1.90
2018-09-23T10:40:36.418Z,2.00
2018-09-23T10:43:05.700Z,2.17
2018-09-23T10:45:34.956Z,2.20
2018-09-23T10:48:04.234Z,1.40
2018-09-23T10:50:33.574Z,1.57
2018-09-23T10:53:02.873Z,2.37
2018-09-23T10:55:32.151Z,2.73
2018-09-23T10:58:01.428Z,1.40
2018-09-23T11:00:30.730Z,1.53
2018-09-23T11:03:00.034Z,6.83
2018-09-23T11:05:29.300Z,1.13
2018-09-23T11:07:58.619Z,1.70
2018-09-23T11:10:27.901Z,1.90
2018-09-23T11:12:57.281Z,1.30
2018-09-23T11:15:26.581Z,1.70
2018-09-23T11:17:55.931Z,1.20
2018-09-23T11:20:25.208Z,1.10
2018-09-23T11:22:54.511Z,1.50
2018-09-23T11:25:23.814Z,1.97
2018-09-23T11:27:53.114Z,1.20
2018-09-23T11:30:22.408Z,1.53
2018-09-23T11:32:51.694Z,1.20
2018-09-23T11:35:20.989Z,1.17
2018-09-23T11:37:50.285Z,1.57
2018-09-23T11:40:19.624Z,1.30
2018-09-23T11:42:48.947Z,1.20
2018-09-23T11:45:18.234Z,1.40
2018-09-23T11:47:47.503Z,1.50
2018-09-23T11:50:16.769Z,1.63
2018-09-23T11:52:46.066Z,2.53
2018-09-23T11:55:15.483Z,1.10
2018-09-23T11:57:44.817Z,2.23
2018-09-23T12:00:14.135Z,3.10
2018-09-23T12:02:43.526Z,1.20
2018-09-23T12:05:12.856Z,1.10
2018-09-23T12:07:42.132Z,1.70
2018-09-23T12:10:11.503Z,2.83
2018-09-23T12:12:40.783Z,1.30
2018-09-23T12:15:10.065Z,1.47
2018-09-23T12:17:39.350Z,1.20
2018-09-23T12:20:08.669Z,1.67
2018-09-23T12:22:37.986Z,1.20
2018-09-23T12:25:07.660Z,1.10
2018-09-23T12:27:36.997Z,1.20
2018-09-23T12:30:06.502Z,1.50
2018-09-23T12:32:35.848Z,1.77
2018-09-23T12:35:05.277Z,2.27
2018-09-23T12:37:34.551Z,1.00
2018-09-23T12:40:03.844Z,1.50
2018-09-23T12:42:33.166Z,1.00
2018-09-23T12:45:02.530Z,1.57
2018-09-23T12:47:31.812Z,1.50
2018-09-23T12:50:01.198Z,1.10
2018-09-23T12:52:30.497Z,1.80
2018-09-23T12:54:59.862Z,3.43
2018-09-23T12:57:29.216Z,2.00
2018-09-23T12:59:58.541Z,1.83
2018-09-23T13:02:27.895Z,3.10
2018-09-23T13:04:57.155Z,1.20
2018-09-23T13:07:26.501Z,1.30
2018-09-23T13:09:55.832Z,1.73
2018-09-23T13:12:25.166Z,1.70
2018-09-23T13:14:54.438Z,1.30
2018-09-23T13:17:23.777Z,1.30
2018-09-23T13:19:53.064Z,1.03
2018-09-23T13:22:22.349Z,1.83
2018-09-23T13:24:51.641Z,1.00
2018-09-23T13:27:20.959Z,2.07
2018-09-23T13:29:50.261Z,1.90
2018-09-23T13:32:19.581Z,1.37
2018-09-23T13:34:48.881Z,1.10
2018-09-23T13:37:18.231Z,1.00
2018-09-23T13:39:47.543Z,1.10
2018-09-23T13:42:16.873Z,1.10
2018-09-23T13:44:46.170Z,1.50
2018-09-23T13:47:15.534Z,1.30
2018-09-23T13:49:44.906Z,1.33
2018-09-23T13:52:14.225Z,1.00
2018-09-23T13:54:43.513Z,10.73
2018-09-23T13:57:12.797Z,1.13
2018-09-23T13:59:42.078Z,2.00
2018-09-23T14:02:11.490Z,1.30
2018-09-23T14:04:40.804Z,3.30
2018-09-23T14:07:10.113Z,1.77
2018-09-23T14:09:39.431Z,2.07
2018-09-23T14:12:08.720Z,1.67
2018-09-23T14:14:37.986Z,1.50
2018-09-23T14:17:07.389Z,2.47
2018-09-23T14:19:36.779Z,1.27
2018-09-23T14:22:06.106Z,1.30
2018-09-23T14:24:35.409Z,1.00
2018-09-23T14:27:04.685Z,2.00
2018-09-23T14:29:34.008Z,1.17
2018-09-23T14:32:03.359Z,0.90
2018-09-23T14:34:32.678Z,0.90
2018-09-23T14:37:01.954Z,1.63
2018-09-23T14:39:31.365Z,1.73
2018-09-23T14:42:00.655Z,1.73
2018-09-23T14:44:29.989Z,1.10
2018-09-23T14:46:59.261Z,0.90
2018-09-23T14:49:28.593Z,1.57
2018-09-23T14:51:57.829Z,1.00
2018-09-23T14:54:27.196Z,1.10
2018-09-23T14:56:56.382Z,1.60
2018-09-23T14:59:25.901Z,2.50
2018-09-23T15:01:55.262Z,2.70
2018-09-23T15:04:24.551Z,1.30
2018-09-23T15:06:53.863Z,5.10
2018-09-23T15:09:23.176Z,1.00
2018-09-23T15:11:52.469Z,0.90
2018-09-23T15:14:21.750Z,1.63
2018-09-23T15:16:51.029Z,1.97
2018-09-23T15:19:20.394Z,1.07
2018-09-23T15:21:49.721Z,0.93
2018-09-23T15:24:18.945Z,2.00
2018-09-23T15:26:48.202Z,4.63
2018-09-23T15:29:17.446Z,1.10
2018-09-23T15:31:46.797Z,1.10
2018-09-23T15:34:16.063Z,1.43
2018-09-23T15:36:45.385Z,1.43
2018-09-23T15:39:14.640Z,1.67
2018-09-23T15:41:43.930Z,8.70
2018-09-23T15:44:13.214Z,1.30
2018-09-23T15:46:42.490Z,1.50
2018-09-23T15:49:11.722Z,1.67
2018-09-23T15:51:41.014Z,2.10
2018-09-23T15:54:10.277Z,1.30
2018-09-23T15:56:39.574Z,1.00
2018-09-23T15:59:08.858Z,2.90
2018-09-23T16:01:38.199Z,1.10
2018-09-23T16:04:07.660Z,1.40
2018-09-23T16:06:36.936Z,1.60
2018-09-23T16:09:08.062Z,1.87
2018-09-23T16:11:37.361Z,3.27
2018-09-23T16:14:06.677Z,2.57
2018-09-23T16:16:36.001Z,1.53
2018-09-23T16:19:05.363Z,2.97
2018-09-23T16:21:34.730Z,1.13
2018-09-23T16:24:04.199Z,1.70
2018-09-23T16:26:33.834Z,1.60
2018-09-23T16:29:03.213Z,2.17
2018-09-23T16:31:32.477Z,1.83
2018-09-23T16:34:01.802Z,2.80
2018-09-23T16:36:31.086Z,5.87
2018-09-23T16:39:00.431Z,5.40
2018-09-23T16:41:29.754Z,8.17
2018-09-23T16:43:59.044Z,6.00
2018-09-23T16:46:28.344Z,5.63
2018-09-23T16:48:57.657Z,4.17
2018-09-23T16:51:27.104Z,4.73
2018-09-23T16:53:56.390Z,1.87
2018-09-23T16:56:25.785Z,4.60
2018-09-23T16:58:55.060Z,5.20
2018-09-23T17:01:24.428Z,2.73
2018-09-23T17:03:53.757Z,2.87
2018-09-23T17:06:23.078Z,2.03
2018-09-23T17:08:52.353Z,1.30
2018-09-23T17:11:21.679Z,2.17
2018-09-23T17:13:51.419Z,1.40
2018-09-23T17:16:20.991Z,1.90
2018-09-23T17:18:50.364Z,2.00
2018-09-23T17:21:19.803Z,2.50
2018-09-23T17:23:49.077Z,2.17
2018-09-23T17:26:18.609Z,2.00
2018-09-23T17:28:47.893Z,2.23
2018-09-23T17:31:17.197Z,1.10
2018-09-23T17:33:46.537Z,1.60
2018-09-23T17:36:15.898Z,1.80
2018-09-23T17:38:45.171Z,1.53
2018-09-23T17:41:14.531Z,2.80
2018-09-23T17:43:43.809Z,3.30
2018-09-23T17:46:13.195Z,2.07
2018-09-23T17:48:42.559Z,1.20
2018-09-23T17:51:11.869Z,1.30
2018-09-23T17:53:41.153Z,1.33
2018-09-23T17:56:10.513Z,1.30
2018-09-23T17:58:40.061Z,1.50
2018-09-23T18:01:09.426Z,2.40
2018-09-23T18:03:38.762Z,1.90
2018-09-23T18:06:08.075Z,1.50
2018-09-23T18:08:37.325Z,1.37
2018-09-23T18:11:06.678Z,1.00
2018-09-23T18:13:35.947Z,2.63
2018-09-23T18:16:05.248Z,1.60
2018-09-23T18:18:34.559Z,3.10
2018-09-23T18:21:04.056Z,1.80
2018-09-23T18:23:33.403Z,3.83
2018-09-23T18:26:02.877Z,1.80
2018-09-23T18:28:32.169Z,1.00
2018-09-23T18:31:01.466Z,1.33
2018-09-23T18:33:31.040Z,1.37
2018-09-23T18:36:00.449Z,1.37
2018-09-23T18:38:29.781Z,1.50
2018-09-23T18:40:59.440Z,1.70
2018-09-23T18:43:28.930Z,1.57
2018-09-23T18:45:58.281Z,3.40
2018-09-23T18:48:27.701Z,1.10
2018-09-23T18:50:57.093Z,1.10
2018-09-23T18:53:26.763Z,1.50
2018-09-23T18:55:56.251Z,1.77
2018-09-23T18:58:26.124Z,1.10
2018-09-23T19:00:55.677Z,1.50
2018-09-23T19:03:25.187Z,1.77
2018-09-23T19:05:54.459Z,1.10
2018-09-23T19:08:23.733Z,2.30
2018-09-23T19:10:53.073Z,1.00
2018-09-23T19:13:27.843Z,0.90
2018-09-23T19:16:02.230Z,1.10
2018-09-23T19:18:31.719Z,0.90
2018-09-23T19:21:01.293Z,1.00
2018-09-23T19:23:30.730Z,0.90
2018-09-23T19:26:00.031Z,1.30
2018-09-23T19:28:29.424Z,1.30
2018-09-23T19:30:58.786Z,1.20
2018-09-23T19:33:28.194Z,1.30
2018-09-23T19:35:57.483Z,2.33
2018-09-23T19:38:26.866Z,1.00
2018-09-23T19:40:56.175Z,1.20
2018-09-23T19:43:25.470Z,1.10
2018-09-23T19:45:54.770Z,1.00
2018-09-23T19:48:24.022Z,1.57
2018-09-23T19:50:53.346Z,1.10
2018-09-23T19:53:22.617Z,1.30
2018-09-23T19:55:52.149Z,1.10
2018-09-23T19:58:21.529Z,1.00
2018-09-23T20:00:50.899Z,0.90
2018-09-23T20:03:20.238Z,1.50
2018-09-23T20:05:49.585Z,0.90
2018-09-23T20:08:18.925Z,1.00
2018-09-23T20:10:48.521Z,1.70
2018-09-23T20:13:17.853Z,1.30
2018-09-23T20:15:47.201Z,1.30
2018-09-23T20:18:16.453Z,1.73
2018-09-23T20:20:45.760Z,0.90
2018-09-23T20:23:15.065Z,0.90
2018-09-23T20:25:44.334Z,0.93
2018-09-23T20:28:13.646Z,1.00
2018-09-23T20:30:42.934Z,0.90
2018-09-23T20:33:12.183Z,1.20
2018-09-23T20:35:41.706Z,3.20
2018-09-23T20:38:10.983Z,1.10
2018-09-23T20:40:40.309Z,1.00
2018-09-23T20:43:09.592Z,1.00
2018-09-23T20:45:38.894Z,1.10
2018-09-23T20:48:08.217Z,3.53
2018-09-23T20:50:37.560Z,1.17
2018-09-23T20:53:06.851Z,1.00
2018-09-23T20:55:36.276Z,0.90
2018-09-23T20:58:06.134Z,0.90
2018-09-23T21:00:35.603Z,0.90
2018-09-23T21:03:04.936Z,0.90
2018-09-23T21:05:34.276Z,0.87
2018-09-23T21:08:03.585Z,0.90
2018-09-23T21:10:32.952Z,0.90
2018-09-23T21:13:02.216Z,1.00
2018-09-23T21:15:31.519Z,1.10
2018-09-23T21:18:00.886Z,0.90
2018-09-23T21:20:30.149Z,1.00
2018-09-23T21:22:59.413Z,1.63
2018-09-23T21:25:28.805Z,1.10
2018-09-23T21:27:58.146Z,1.03
2018-09-23T21:30:27.522Z,1.00
2018-09-23T21:32:56.881Z,0.90
2018-09-23T21:35:26.230Z,1.10
2018-09-23T21:37:55.602Z,1.03
2018-09-23T21:40:24.903Z,1.33
2018-09-23T21:42:54.329Z,1.23
2018-09-23T21:45:23.607Z,1.00
2018-09-23T21:47:52.924Z,1.20
2018-09-23T21:50:22.241Z,1.00
2018-09-23T21:52:51.583Z,1.00
2018-09-23T21:55:20.855Z,1.10
2018-09-23T21:57:50.175Z,1.10
2018-09-23T22:00:19.437Z,1.30
2018-09-23T22:02:48.757Z,1.10
2018-09-23T22:05:18.030Z,0.90
2018-09-23T22:07:47.347Z,5.27
2018-09-23T22:10:16.659Z,1.10
2018-09-23T22:12:45.985Z,1.30
2018-09-23T22:15:19.298Z,1.27
2018-09-23T22:17:48.617Z,1.30
2018-09-23T22:20:17.886Z,2.77
2018-09-23T22:22:47.212Z,1.30
2018-09-23T22:25:16.522Z,1.83
2018-09-23T22:27:47.494Z,1.40
2018-09-23T22:30:18.948Z,1.30
2018-09-23T22:32:49.876Z,1.33
2018-09-23T22:35:19.313Z,1.93
2018-09-23T22:37:48.709Z,1.60
2018-09-23T22:40:17.985Z,1.13
2018-09-23T22:42:47.265Z,1.07
2018-09-23T22:45:16.592Z,1.27
2018-09-23T22:47:45.867Z,1.00
2018-09-23T22:50:15.169Z,0.90
2018-09-23T22:52:44.453Z,1.10
2018-09-23T22:55:13.769Z,0.90
2018-09-23T22:57:43.051Z,1.10
2018-09-23T23:00:12.339Z,0.90
2018-09-23T23:02:41.710Z,0.90
2018-09-23T23:05:11.221Z,0.90
2018-09-23T23:07:40.480Z,1.00
2018-09-23T23:10:09.807Z,0.90
2018-09-23T23:12:39.068Z,1.20
2018-09-23T23:15:08.347Z,1.23
2018-09-23T23:17:37.661Z,4.13
2018-09-23T23:20:07.126Z,0.97
2018-09-23T23:22:36.415Z,0.97
2018-09-23T23:25:05.880Z,1.30
2018-09-23T23:27:35.170Z,1.07
2018-09-23T23:30:04.561Z,1.77
2018-09-23T23:32:33.849Z,0.90
2018-09-23T23:35:03.137Z,0.90
2018-09-23T23:37:32.421Z,0.90
2018-09-23T23:40:01.654Z,1.00
2018-09-23T23:42:31.146Z,0.90
2018-09-23T23:45:00.401Z,1.00
2018-09-23T23:47:29.666Z,1.00
2018-09-23T23:49:58.943Z,0.90
2018-09-23T23:52:31.036Z,1.73
2018-09-23T23:55:00.303Z,1.20
2018-09-23T23:57:29.608Z,1.37
2018-09-23T23:59:58.906Z,1.50
